Time;durP1;ratioP1;P1;durP2;ratioP2;P2;SDS_P1;SDS_P2;PMS_P1;PMS_P2;Temp;Humidity;BMP_temperature;BMP_pressure;BME280_temperature;BME280_humidity;BME280_pressure;Samples;Min_cycle;Max_cycle;Signal;HPM_P1;HPM_P2
2024/02/20 00:02:22;;;;;;;22.15;11.60;;;;;;;-6.55;68.84;101031.59;5051620;28;20089;-69
2024/02/20 00:04:47;;;;;;;24.42;11.05;;;;;;;-6.55;68.54;101028.97;5051479;28;20025;-67
2024/02/20 00:07:13;;;;;;;23.48;10.63;;;;;;;-6.53;68.41;101035.06;5051827;28;20357;-66
2024/02/20 00:09:39;;;;;;;18.85;10.02;;;;;;;-6.64;68.29;101018.50;5050970;28;20375;-68
2024/02/20 00:12:05;;;;;;;21.73;10.77;;;;;;;-6.61;68.61;101028.94;5051286;28;20074;-67
2024/02/20 00:14:30;;;;;;;24.17;11.05;;;;;;;-6.69;68.74;101020.19;5051534;28;20104;-70
2024/02/20 00:16:56;;;;;;;26.10;12.20;;;;;;;-6.62;68.27;101027.19;5050692;28;20104;-66
2024/02/20 00:19:22;;;;;;;23.58;12.20;;;;;;;-6.66;68.75;101023.66;5050562;28;20052;-67
2024/02/20 00:21:48;;;;;;;25.55;12.23;;;;;;;-6.70;68.54;101027.09;5051157;28;20037;-67
2024/02/20 00:24:13;;;;;;;24.73;12.70;;;;;;;-6.71;68.30;101027.97;5051467;28;20037;-68
2024/02/20 00:26:39;;;;;;;26.20;13.70;;;;;;;-6.75;68.25;101022.69;5050886;28;20029;-67
2024/02/20 00:29:05;;;;;;;30.50;13.35;;;;;;;-6.84;68.41;101013.94;5050549;28;20037;-67
2024/02/20 00:31:36;;;;;;;28.05;13.82;;;;;;;-6.84;67.96;101026.97;5050786;28;20025;-67
2024/02/20 00:34:02;;;;;;;29.75;14.98;;;;;;;-6.92;68.12;101018.22;5050358;28;20037;-65
2024/02/20 00:36:28;;;;;;;36.10;16.35;;;;;;;-7.08;68.46;101012.84;5050978;28;20463;-69
2024/02/20 00:38:57;;;;;;;29.08;15.02;;;;;;;-7.02;68.48;101022.44;5050839;28;20407;-68
2024/02/20 00:41:23;;;;;;;29.15;14.20;;;;;;;-7.01;68.51;101029.41;5050583;28;20033;-65
2024/02/20 00:43:48;;;;;;;32.03;14.63;;;;;;;-7.07;69.10;101018.94;5050707;28;20021;-63
2024/02/20 00:46:19;;;;;;;34.63;16.17;;;;;;;-7.11;68.90;101019.75;5050625;28;20025;-68
2024/02/20 00:48:45;;;;;;;35.00;16.15;;;;;;;-7.19;68.74;101013.56;5051133;28;20041;-67
2024/02/20 00:51:12;;;;;;;33.65;15.55;;;;;;;-7.14;68.65;101031.00;5050780;28;20041;-66
2024/02/20 00:53:37;;;;;;;36.72;16.13;;;;;;;-7.18;68.93;101028.31;5050434;28;20048;-67
2024/02/20 00:56:03;;;;;;;33.08;15.73;;;;;;;-7.22;68.87;101037.84;5050736;28;20034;-66
2024/02/20 00:58:29;;;;;;;35.10;15.60;;;;;;;-7.20;68.81;101038.72;5050454;28;20043;-69
2024/02/20 01:00:54;;;;;;;34.13;15.52;;;;;;;-7.24;68.61;101037.81;5050323;28;20025;-67
2024/02/20 01:03:19;;;;;;;32.67;15.40;;;;;;;-7.29;69.01;101044.69;5050612;28;20124;-64
2024/02/20 01:05:45;;;;;;;30.55;15.25;;;;;;;-7.31;68.69;101041.19;5050272;28;20045;-66
2024/02/20 01:08:11;;;;;;;27.10;15.05;;;;;;;-7.32;68.95;101036.84;5050006;28;20026;-66
2024/02/20 01:10:37;;;;;;;28.73;14.30;;;;;;;-7.35;68.95;101029.00;5050429;28;20419;-67
2024/02/20 01:13:02;;;;;;;30.33;14.98;;;;;;;-7.41;69.07;101021.09;5049574;28;20025;-67
2024/02/20 01:15:28;;;;;;;32.03;14.82;;;;;;;-7.38;68.92;101023.75;5050082;28;20033;-67
2024/02/20 01:17:53;;;;;;;39.33;15.65;;;;;;;-7.40;69.31;101030.66;5050355;28;20115;-66
2024/02/20 01:20:19;;;;;;;29.42;13.98;;;;;;;-7.41;69.10;101028.91;5050639;28;20025;-67
2024/02/20 01:22:45;;;;;;;31.67;14.25;;;;;;;-7.43;68.58;101031.50;5049663;28;20057;-66
2024/02/20 01:25:10;;;;;;;32.90;15.68;;;;;;;-7.45;69.39;101029.72;5050069;28;20036;-66
2024/02/20 01:27:36;;;;;;;34.40;14.63;;;;;;;-7.51;69.08;101017.50;5049283;28;20388;-67
2024/02/20 01:30:02;;;;;;;35.35;14.77;;;;;;;-7.49;69.14;101026.22;5049875;28;20085;-66
2024/02/20 01:32:28;;;;;;;33.38;15.25;;;;;;;-7.52;69.31;101029.66;5050123;28;20029;-64
2024/02/20 01:34:53;;;;;;;32.08;15.00;;;;;;;-7.50;69.23;101032.25;5049750;28;20029;-65
2024/02/20 01:37:19;;;;;;;38.75;14.52;;;;;;;-7.52;69.01;101019.25;5050330;28;20033;-64
2024/02/20 01:39:45;;;;;;;45.65;16.15;;;;;;;-7.56;69.01;101035.69;5050016;28;20044;-68
2024/02/20 01:42:10;;;;;;;34.95;15.80;;;;;;;-7.58;69.07;101031.28;5049699;28;20021;-67
2024/02/20 01:44:36;;;;;;;44.83;16.98;;;;;;;-7.64;69.65;101009.56;5049714;28;20121;-68
2024/02/20 01:47:03;;;;;;;44.60;16.77;;;;;;;-7.59;69.06;101025.25;5049247;28;20361;-66
2024/02/20 01:49:30;;;;;;;42.92;16.33;;;;;;;-7.64;69.62;101017.38;5049930;28;20052;-67
2024/02/20 01:51:58;;;;;;;42.90;16.23;;;;;;;-7.70;69.47;101006.88;5048663;28;20076;-65
2024/02/20 01:54:24;;;;;;;38.35;15.07;;;;;;;-7.66;69.33;101024.28;5049151;28;20033;-66
2024/02/20 01:56:52;;;;;;;35.90;15.57;;;;;;;-7.86;69.52;100990.19;5049899;27;20357;-65
2024/02/20 01:59:18;;;;;;;42.63;15.00;;;;;;;-7.73;69.82;101006.81;5049579;28;20037;-67
2024/02/20 02:01:43;;;;;;;43.40;15.73;;;;;;;-7.75;69.40;101003.31;5049661;28;20058;-68
2024/02/20 02:04:09;;;;;;;42.78;16.90;;;;;;;-7.67;69.52;101012.13;5049441;28;20120;-66
2024/02/20 02:06:38;;;;;;;34.42;15.73;;;;;;;-7.65;69.51;101001.72;5049665;28;20037;-65
2024/02/20 02:09:04;;;;;;;38.13;15.70;;;;;;;-7.68;69.57;101007.78;5049229;28;20346;-68
2024/02/20 02:11:32;;;;;;;42.92;17.20;;;;;;;-7.67;69.54;101022.53;5049623;28;20035;-67
2024/02/20 02:13:58;;;;;;;42.10;16.52;;;;;;;-7.69;69.91;101015.53;5049552;28;20025;-67
2024/02/20 02:16:23;;;;;;;39.97;15.73;;;;;;;-7.70;69.76;101001.69;5049459;28;20120;-64
2024/02/20 02:18:50;;;;;;;35.13;15.27;;;;;;;-7.73;69.60;100996.41;5049399;28;20431;-66
2024/02/20 02:21:15;;;;;;;35.95;15.65;;;;;;;-7.69;69.58;101011.25;5048977;28;20025;-67
2024/02/20 02:23:41;;;;;;;41.90;16.58;;;;;;;-7.72;69.56;101011.16;5048919;28;20035;-68
2024/02/20 02:26:10;;;;;;;30.63;15.02;;;;;;;-7.72;69.60;101008.56;5049068;28;20029;-67
2024/02/20 02:28:37;;;;;;;35.58;16.52;;;;;;;-7.74;69.63;101018.06;5048993;28;20115;-67
2024/02/20 02:31:02;;;;;;;37.70;16.65;;;;;;;-7.81;69.33;100998.06;5049079;28;20047;-66
2024/02/20 02:33:28;;;;;;;40.72;16.23;;;;;;;-7.79;69.16;101007.63;5049288;28;20352;-70
2024/02/20 02:35:54;;;;;;;36.22;16.80;;;;;;;-7.93;69.44;100989.25;5049454;28;20025;-71
2024/02/20 02:38:19;;;;;;;41.35;15.70;;;;;;;-7.80;69.67;101010.19;5048734;28;20456;-70
2024/02/20 02:40:45;;;;;;;39.38;16.27;;;;;;;-7.87;69.36;100998.84;5050141;28;20128;-69
2024/02/20 02:43:10;;;;;;;32.28;15.52;;;;;;;-7.90;69.59;101003.13;5052637;28;20397;-69
2024/02/20 02:45:36;;;;;;;38.42;14.80;;;;;;;-7.88;69.43;101009.22;5052616;28;20096;-70
2024/02/20 02:48:03;;;;;;;33.88;14.63;;;;;;;-7.94;69.43;101002.22;5052138;28;20056;-70
2024/02/20 02:50:30;;;;;;;29.67;13.77;;;;;;;-7.89;69.48;101004.88;5052301;28;20169;-69
2024/02/20 02:52:56;;;;;;;28.60;12.40;;;;;;;-7.98;69.35;100990.03;5043638;28;20054;-64
2024/02/20 02:55:25;;;;;;;27.30;12.73;;;;;;;-7.95;69.59;100995.25;5032630;28;20029;-72
2024/02/20 02:57:50;;;;;;;28.02;13.82;;;;;;;-8.05;69.64;100991.66;5043108;28;20029;-69
2024/02/20 03:00:16;;;;;;;24.98;12.10;;;;;;;-7.90;69.64;101005.72;5051441;28;20369;-70
2024/02/20 03:02:42;;;;;;;27.55;12.30;;;;;;;-7.94;69.79;101000.50;5052229;28;20039;-70
2024/02/20 03:05:08;;;;;;;23.33;10.75;;;;;;;-7.96;69.88;100993.50;5052312;28;20254;-70
2024/02/20 03:07:33;;;;;;;25.48;11.05;;;;;;;-7.93;69.53;100999.66;5052517;28;20025;-70
2024/02/20 03:09:59;;;;;;;24.85;10.65;;;;;;;-7.84;69.83;101003.22;5052144;28;20037;-69
2024/02/20 03:12:25;;;;;;;31.42;12.00;;;;;;;-7.94;70.01;100987.50;5052013;28;20044;-70
2024/02/20 03:14:52;;;;;;;21.88;10.85;;;;;;;-7.89;69.54;100990.13;5052423;28;20093;-70
2024/02/20 03:17:18;;;;;;;24.65;12.18;;;;;;;-7.90;69.72;100987.53;5052313;28;20346;-70
2024/02/20 03:19:44;;;;;;;24.63;11.23;;;;;;;-7.85;70.06;101001.47;5051924;28;20043;-71
2024/02/20 03:22:10;;;;;;;24.90;11.73;;;;;;;-7.85;70.12;100994.53;5052090;28;20029;-69
2024/02/20 03:24:36;;;;;;;20.75;9.82;;;;;;;-7.86;69.85;100995.38;5052148;28;20054;-68
2024/02/20 03:27:03;;;;;;;24.08;10.65;;;;;;;-7.82;69.95;100993.69;5051676;28;20025;-69
2024/02/20 03:29:30;;;;;;;20.60;9.60;;;;;;;-7.88;69.93;100978.88;5052029;28;20025;-67
2024/02/20 03:31:55;;;;;;;25.17;11.10;;;;;;;-7.84;69.66;100995.41;5051956;28;20059;-67
2024/02/20 03:34:21;;;;;;;19.40;10.20;;;;;;;-7.83;69.93;100995.44;5052111;28;20445;-67
2024/02/20 03:36:47;;;;;;;20.15;8.98;;;;;;;-7.80;70.38;100992.88;5051555;28;20033;-67
2024/02/20 03:39:12;;;;;;;16.20;8.90;;;;;;;-8.12;70.13;100940.44;5051785;28;20048;-69
2024/02/20 03:41:38;;;;;;;14.90;8.13;;;;;;;-7.75;70.54;100992.94;5051569;28;20037;-69
2024/02/20 03:44:04;;;;;;;14.77;7.93;;;;;;;-7.72;70.15;100997.31;5051780;28;20064;-66
2024/02/20 03:46:29;;;;;;;17.38;7.90;;;;;;;-7.70;70.15;100995.59;5051786;28;20060;-64
2024/02/20 03:48:55;;;;;;;15.88;8.13;;;;;;;-7.61;70.37;100989.66;5051713;28;20029;-66
2024/02/20 03:51:21;;;;;;;15.73;8.55;;;;;;;-7.58;70.03;100992.28;5050664;28;20056;-67
2024/02/20 03:53:46;;;;;;;15.55;8.23;;;;;;;-7.84;69.88;100941.66;5050788;28;20037;-65
2024/02/20 03:56:12;;;;;;;16.17;8.50;;;;;;;-7.56;69.93;100985.38;5051571;28;20029;-67
2024/02/20 03:58:38;;;;;;;15.55;8.70;;;;;;;-7.46;69.95;100995.06;5051298;28;20364;-66
2024/02/20 04:01:05;;;;;;;13.38;7.90;;;;;;;-7.47;69.92;100993.31;5051049;28;20456;-66
2024/02/20 04:03:32;;;;;;;15.15;8.10;;;;;;;-7.43;70.04;100989.00;5050733;28;20361;-66
2024/02/20 04:05:58;;;;;;;17.33;8.45;;;;;;;-7.43;69.77;100982.09;5051703;28;20330;-66
2024/02/20 04:08:24;;;;;;;13.50;7.25;;;;;;;-7.44;69.74;100969.03;5051158;28;20085;-69
2024/02/20 04:10:49;;;;;;;14.38;7.05;;;;;;;-7.33;69.25;100990.88;5050983;28;20025;-68
2024/02/20 04:13:15;;;;;;;12.27;6.63;;;;;;;-7.30;69.26;100988.31;5051211;28;20044;-73
2024/02/20 04:15:40;;;;;;;11.13;6.20;;;;;;;-7.28;69.70;100989.19;5051382;28;20033;-70
2024/02/20 04:18:06;;;;;;;14.35;7.38;;;;;;;-7.32;69.06;100994.31;5050961;28;20129;-70
2024/02/20 04:20:31;;;;;;;13.70;7.43;;;;;;;-7.33;68.98;100985.66;5051008;28;20033;-67
2024/02/20 04:22:57;;;;;;;12.15;7.20;;;;;;;-7.35;69.49;100988.25;5051317;28;20025;-72
2024/02/20 04:25:22;;;;;;;12.77;7.07;;;;;;;-7.32;69.42;100996.94;5050288;28;20028;-71
2024/02/20 04:27:50;;;;;;;14.98;7.45;;;;;;;-7.35;69.79;100993.44;5051219;28;20032;-71
2024/02/20 04:30:16;;;;;;;15.45;7.57;;;;;;;-7.59;69.38;100947.22;5050337;28;20037;-71
2024/02/20 04:32:41;;;;;;;13.13;7.50;;;;;;;-7.30;69.30;100997.81;5050974;28;20345;-71
2024/02/20 04:35:07;;;;;;;13.07;7.90;;;;;;;-7.26;69.58;100991.78;5050826;28;20121;-72
2024/02/20 04:37:33;;;;;;;18.02;9.07;;;;;;;-7.24;69.09;101006.59;5051113;28;20338;-71
2024/02/20 04:39:59;;;;;;;18.65;9.95;;;;;;;-7.22;69.10;100993.59;5051168;28;20101;-69
2024/02/20 04:42:24;;;;;;;16.95;10.00;;;;;;;-7.19;69.33;100997.94;5050802;28;20088;-72
2024/02/20 04:44:50;;;;;;;18.15;9.45;;;;;;;-7.12;68.81;101016.25;5050334;28;20053;-68
2024/02/20 04:47:16;;;;;;;18.15;9.63;;;;;;;-7.12;68.87;101011.06;5050441;28;20036;-66
2024/02/20 04:49:42;;;;;;;20.45;9.27;;;;;;;-6.95;68.76;101018.19;5050207;28;20341;-70
2024/02/20 04:52:09;;;;;;;20.38;8.73;;;;;;;-7.06;68.38;101000.69;5050680;28;20045;-67
2024/02/20 04:54:34;;;;;;;15.68;8.25;;;;;;;-6.89;68.16;101005.22;5033094;28;20033;-64
2024/02/20 04:57:00;;;;;;;13.40;7.97;;;;;;;-6.85;67.99;101008.75;5050779;28;20085;-65
2024/02/20 04:59:26;;;;;;;18.25;8.73;;;;;;;-6.83;67.89;101013.09;5050149;28;20044;-64
2024/02/20 05:01:52;;;;;;;17.35;9.20;;;;;;;-7.06;67.79;100959.06;5050461;28;20021;-65
2024/02/20 05:04:18;;;;;;;15.13;8.18;;;;;;;-6.75;67.18;100994.06;5049627;28;20033;-68
2024/02/20 05:06:45;;;;;;;14.52;7.20;;;;;;;-6.57;66.95;101009.00;5050398;28;20037;-68
2024/02/20 05:09:10;;;;;;;19.35;8.50;;;;;;;-6.38;67.13;101020.44;5050407;28;20386;-68
2024/02/20 05:11:36;;;;;;;15.65;7.90;;;;;;;-5.99;66.31;101007.66;5050205;28;20479;-69
2024/02/20 05:14:02;;;;;;;18.20;7.95;;;;;;;-5.69;65.29;101017.41;5050587;28;20033;-68
2024/02/20 05:16:27;;;;;;;17.92;8.35;;;;;;;-5.65;64.71;101007.88;5050095;28;20033;-66
2024/02/20 05:18:53;;;;;;;11.95;7.32;;;;;;;-5.88;64.10;100959.06;5050244;28;20025;-65
2024/02/20 05:21:18;;;;;;;13.90;7.47;;;;;;;-5.52;63.51;101021.88;5050242;28;20025;-69
2024/02/20 05:23:44;;;;;;;14.93;6.90;;;;;;;-5.58;63.68;101006.16;5050041;28;20372;-63
2024/02/20 05:26:09;;;;;;;18.10;8.23;;;;;;;-5.45;63.87;101014.91;5049964;28;20452;-63
2024/02/20 05:28:35;;;;;;;14.48;7.63;;;;;;;-5.40;63.03;101015.84;5049949;28;20035;-62
2024/02/20 05:31:00;;;;;;;13.77;7.07;;;;;;;-5.39;63.12;101005.38;5050387;28;20033;-63
2024/02/20 05:33:27;;;;;;;13.23;6.97;;;;;;;-5.21;62.70;101019.38;5049176;28;20345;-63
2024/02/20 05:35:53;;;;;;;11.90;7.07;;;;;;;-5.30;62.64;100956.72;5049812;28;20505;-63
2024/02/20 05:38:18;;;;;;;14.07;7.65;;;;;;;-3.48;60.62;101012.44;5049900;28;20025;-62
2024/02/20 05:40:44;;;;;;;14.10;6.97;;;;;;;-0.24;53.57;101000.47;5049988;28;20064;-64
2024/02/20 05:43:09;;;;;;;13.65;6.60;;;;;;;2.61;46.04;101004.69;5049388;28;20025;-63
2024/02/20 05:45:35;;;;;;;14.68;7.18;;;;;;;4.86;42.34;100992.00;5048963;28;20029;-63
2024/02/20 05:48:00;;;;;;;14.43;6.35;;;;;;;6.70;39.10;100990.63;5050076;28;20021;-64
2024/02/20 05:50:28;;;;;;;10.57;5.78;;;;;;;8.02;35.46;100992.31;5049891;28;20033;-64
2024/02/20 05:52:56;;;;;;;10.75;6.40;;;;;;;9.45;32.57;100974.84;5049381;28;20483;-64
2024/02/20 05:55:22;;;;;;;16.27;6.85;;;;;;;10.36;31.51;100965.03;5049761;28;20410;-65
2024/02/20 05:57:48;;;;;;;12.40;7.07;;;;;;;11.19;29.74;100975.06;5049573;28;20084;-64
2024/02/20 06:00:14;;;;;;;11.55;6.85;;;;;;;11.60;28.81;100978.69;5049789;28;20033;-63
2024/02/20 06:02:40;;;;;;;14.45;7.68;;;;;;;12.27;27.48;100978.72;5049579;27;20050;-63
2024/02/20 06:05:07;;;;;;;11.25;6.90;;;;;;;12.82;26.37;100976.66;5049754;28;20052;-65
2024/02/20 06:07:33;;;;;;;10.13;6.38;;;;;;;13.41;25.50;100977.78;5048260;28;20109;-63
2024/02/20 06:09:59;;;;;;;9.02;6.10;;;;;;;13.91;24.19;100968.72;5049723;28;20033;-65
2024/02/20 06:12:26;;;;;;;10.43;6.53;;;;;;;14.37;23.65;100942.72;5048734;28;20036;-63
2024/02/20 06:14:52;;;;;;;14.38;6.63;;;;;;;14.97;22.82;100974.00;5048362;28;20347;-63
2024/02/20 06:17:18;;;;;;;11.60;5.82;;;;;;;15.32;22.55;100973.81;5048094;28;20032;-64
2024/02/20 06:19:43;;;;;;;9.88;5.65;;;;;;;15.88;21.79;100976.44;5047787;28;20036;-64
2024/02/20 06:22:09;;;;;;;8.60;5.95;;;;;;;16.27;20.70;100978.59;5048980;28;20441;-63
2024/02/20 06:24:34;;;;;;;12.07;6.72;;;;;;;16.56;20.73;100983.28;5049366;28;20036;-62
2024/02/20 06:27:02;;;;;;;11.45;5.88;;;;;;;17.17;19.52;100976.16;5048843;28;20029;-63
2024/02/20 06:29:28;;;;;;;8.60;4.97;;;;;;;17.10;19.56;100983.09;5047914;28;20101;-64
2024/02/20 06:31:53;;;;;;;9.25;5.20;;;;;;;17.29;19.86;100980.44;5048007;28;20037;-63
2024/02/20 06:34:19;;;;;;;6.47;4.20;;;;;;;17.65;18.83;100978.06;5047891;28;20072;-64
2024/02/20 06:36:44;;;;;;;7.88;4.32;;;;;;;18.25;18.83;100967.19;5048747;28;20029;-65
2024/02/20 06:39:10;;;;;;;11.43;4.80;;;;;;;18.53;18.21;100997.94;5048634;28;20116;-64
2024/02/20 06:41:36;;;;;;;7.03;4.50;;;;;;;18.50;18.16;100984.69;5049158;28;20029;-65
2024/02/20 06:44:01;;;;;;;9.85;5.43;;;;;;;18.78;18.24;100992.88;5048423;28;20029;-65
2024/02/20 06:46:27;;;;;;;7.88;5.35;;;;;;;18.38;17.94;100965.03;5047186;28;20036;-65
2024/02/20 06:48:52;;;;;;;8.93;5.35;;;;;;;18.57;17.31;100941.56;5048941;28;20024;-66
2024/02/20 06:51:25;;;;;;;7.45;5.18;;;;;;;19.44;17.31;100995.53;5048638;28;20401;-64
2024/02/20 06:53:51;;;;;;;8.30;5.25;;;;;;;19.43;17.12;100993.84;5047754;28;20044;-65
2024/02/20 06:56:16;;;;;;;8.30;4.85;;;;;;;19.76;17.29;100999.56;5047048;28;20052;-64
2024/02/20 06:58:42;;;;;;;9.32;5.18;;;;;;;20.41;16.53;101003.88;5048935;28;20033;-65
2024/02/20 07:01:08;;;;;;;9.35;4.57;;;;;;;21.05;16.37;100999.97;5047899;28;20067;-65
2024/02/20 07:03:33;;;;;;;5.47;4.45;;;;;;;20.87;15.66;100995.50;5048455;27;20041;-64
2024/02/20 07:05:59;;;;;;;9.85;4.88;;;;;;;21.11;15.66;101004.81;5048711;28;20037;-65
2024/02/20 07:08:24;;;;;;;8.50;4.80;;;;;;;21.43;15.13;100991.41;5041531;27;20033;-65
2024/02/20 07:10:50;;;;;;;7.80;4.80;;;;;;;21.32;14.98;100995.31;5046931;27;20029;-65
2024/02/20 07:13:18;;;;;;;7.47;4.55;;;;;;;21.25;15.20;100967.91;5047397;28;20033;-63
2024/02/20 07:15:44;;;;;;;8.55;4.60;;;;;;;21.55;14.75;100998.28;5047428;28;20085;-65
2024/02/20 07:18:10;;;;;;;14.27;3.97;;;;;;;22.29;13.71;100972.06;5047399;28;20025;-64
2024/02/20 07:20:36;;;;;;;6.72;4.35;;;;;;;22.06;14.31;100991.84;5046208;28;20039;-64
2024/02/20 07:23:02;;;;;;;5.65;4.03;;;;;;;21.68;14.47;100995.09;5048169;28;20046;-63
2024/02/20 07:25:28;;;;;;;6.18;4.20;;;;;;;21.74;14.22;100994.41;5048679;28;20108;-63
2024/02/20 07:27:53;;;;;;;5.93;3.83;;;;;;;21.35;14.36;100984.09;5050026;28;20329;-66
2024/02/20 07:30:19;;;;;;;3.72;3.10;;;;;;;20.43;14.75;100988.25;5051165;28;20033;-63
2024/02/20 07:32:45;;;;;;;3.92;3.13;;;;;;;20.21;14.72;100966.00;5051175;28;20456;-62
2024/02/20 07:35:11;;;;;;;5.03;3.20;;;;;;;19.73;15.05;100984.47;5051623;28;20468;-62
2024/02/20 07:37:38;;;;;;;5.60;3.85;;;;;;;19.25;15.28;100980.25;5051968;28;20043;-62
2024/02/20 07:40:04;;;;;;;6.47;5.05;;;;;;;19.39;15.70;100987.84;5050979;28;20032;-63
2024/02/20 07:42:29;;;;;;;7.13;5.03;;;;;;;19.40;15.66;100980.56;5051388;28;20040;-64
2024/02/20 07:44:55;;;;;;;6.47;4.38;;;;;;;18.77;15.64;100983.03;5051724;28;20029;-64
2024/02/20 07:47:22;;;;;;;7.20;3.25;;;;;;;18.13;15.99;100971.94;5051436;28;20029;-62
2024/02/20 07:49:47;;;;;;;8.77;6.63;;;;;;;17.46;16.55;100972.63;5050525;28;20029;-62
2024/02/20 07:52:13;;;;;;;10.80;8.98;;;;;;;16.98;16.76;100983.22;5050778;28;20411;-62
2024/02/20 07:54:40;;;;;;;17.17;13.73;;;;;;;16.13;17.16;100975.22;5051533;28;20033;-61
2024/02/20 07:57:05;;;;;;;12.05;9.23;;;;;;;14.91;18.41;100983.44;5051173;28;20029;-61
2024/02/20 07:59:31;;;;;;;16.73;13.40;;;;;;;12.87;20.42;100981.69;5049429;28;20358;-61
2024/02/20 08:02:02;;;;;;;11.55;8.88;;;;;;;10.85;22.12;100984.38;5049868;28;20368;-62
2024/02/20 08:04:28;;;;;;;10.02;5.97;;;;;;;8.79;24.65;100989.22;5051232;28;20044;-66
2024/02/20 08:06:54;;;;;;;7.63;5.35;;;;;;;7.02;27.10;100985.59;5037865;28;20025;-67
2024/02/20 08:09:20;;;;;;;12.32;8.25;;;;;;;5.54;29.03;100999.09;5033315;28;20044;-75
2024/02/20 08:11:45;;;;;;;14.35;11.25;;;;;;;4.28;30.92;100982.59;5034625;28;20156;-70
2024/02/20 08:14:11;;;;;;;7.32;4.00;;;;;;;3.39;32.75;101001.44;5042215;27;20033;-72
2024/02/20 08:16:37;;;;;;;7.50;4.10;;;;;;;2.65;34.83;101004.56;5050370;27;20107;-72
2024/02/20 08:19:03;;;;;;;6.80;3.30;;;;;;;2.13;35.77;100997.13;5040297;27;20823;-71
2024/02/20 08:21:29;;;;;;;7.30;3.20;;;;;;;1.58;36.89;101000.28;5044004;28;20033;-70
2024/02/20 08:23:55;;;;;;;5.47;3.30;;;;;;;1.19;37.88;101005.56;5050484;28;20112;-71
2024/02/20 08:26:20;;;;;;;5.50;3.30;;;;;;;0.94;39.03;100997.34;5050346;27;20033;-68
2024/02/20 08:28:46;;;;;;;6.22;3.00;;;;;;;0.76;39.56;100995.97;5048853;28;20025;-70
2024/02/20 08:31:12;;;;;;;12.48;4.03;;;;;;;0.66;39.66;101009.34;5050161;28;20120;-67
2024/02/20 08:33:38;;;;;;;7.97;3.85;;;;;;;0.48;39.77;101009.69;5049190;27;20049;-73
2024/02/20 08:36:04;;;;;;;6.82;3.50;;;;;;;0.33;40.50;101001.22;5042392;28;20498;-69
2024/02/20 08:38:29;;;;;;;8.57;4.00;;;;;;;0.37;41.01;101007.31;5047209;28;20047;-65
2024/02/20 08:40:55;;;;;;;8.68;4.05;;;;;;;0.32;40.90;100999.47;5039813;28;20033;-71
2024/02/20 08:43:20;;;;;;;10.07;4.60;;;;;;;0.19;40.88;100982.16;5047371;27;20372;-70
2024/02/20 08:45:46;;;;;;;10.32;4.90;;;;;;;0.36;40.92;101002.91;5031216;27;20029;-73
2024/02/20 08:48:11;;;;;;;8.90;4.65;;;;;;;0.28;41.41;101001.28;5028257;28;20116;-73
2024/02/20 08:50:38;;;;;;;9.70;4.53;;;;;;;0.27;42.20;101001.34;5029596;28;20034;-74
2024/02/20 08:53:13;;;;;;;8.38;4.20;;;;;;;0.29;41.32;101002.16;5048696;28;20152;-67
2024/02/20 08:55:39;;;;;;;8.50;4.03;;;;;;;0.36;41.36;100998.50;5048698;28;20092;-68
2024/02/20 08:58:05;;;;;;;7.90;4.18;;;;;;;0.30;41.11;100977.56;5047435;28;20033;-69
2024/02/20 09:00:31;;;;;;;6.25;3.80;;;;;;;0.01;41.57;100934.22;5048638;28;20372;-70
2024/02/20 09:02:58;;;;;;;8.25;4.13;;;;;;;0.03;42.01;100949.97;5049954;28;20032;-74
2024/02/20 09:05:24;;;;;;;7.40;3.55;;;;;;;0.22;41.89;100985.59;5049731;28;20386;-73
2024/02/20 09:07:50;;;;;;;7.88;3.47;;;;;;;0.25;41.57;100982.06;5049164;28;20029;-69
2024/02/20 09:10:16;;;;;;;6.00;2.55;;;;;;;0.23;41.07;100974.16;5049398;28;20033;-72
2024/02/20 09:12:41;;;;;;;4.63;2.60;;;;;;;0.25;41.09;100984.69;5050039;28;20058;-74
2024/02/20 09:15:08;;;;;;;6.20;2.60;;;;;;;0.12;41.89;100979.63;5049818;28;20064;-73
2024/02/20 09:17:33;;;;;;;7.25;3.15;;;;;;;0.09;41.35;100984.97;5049456;28;20457;-73
2024/02/20 09:19:59;;;;;;;5.75;3.00;;;;;;;0.06;41.42;100973.63;5048707;27;20043;-70
2024/02/20 09:22:26;;;;;;;9.95;3.92;;;;;;;0.07;41.70;100978.88;5048561;28;20017;-71
2024/02/20 09:24:52;;;;;;;7.95;4.25;;;;;;;0.05;41.76;100977.16;5049338;27;20109;-73
2024/02/20 09:27:18;;;;;;;7.30;4.15;;;;;;;0.05;41.80;100967.50;5041111;28;20044;-72
2024/02/20 09:29:43;;;;;;;8.88;4.30;;;;;;;0.05;41.79;100974.50;5049573;28;20497;-72
2024/02/20 09:32:09;;;;;;;9.63;4.93;;;;;;;0.05;42.70;100972.75;5048125;27;20051;-73
2024/02/20 09:34:35;;;;;;;11.02;5.55;;;;;;;0.06;42.80;100976.25;5047197;27;20147;-72
2024/02/20 09:37:01;;;;;;;9.85;4.65;;;;;;;0.07;42.53;100976.22;5047078;28;20032;-72
2024/02/20 09:39:26;;;;;;;7.68;4.50;;;;;;;-0.30;42.54;100926.88;5047743;28;20417;-72
2024/02/20 09:41:53;;;;;;;11.32;4.90;;;;;;;-0.10;43.13;100973.91;5049699;28;20029;-71
2024/02/20 09:44:19;;;;;;;10.13;5.00;;;;;;;-0.16;42.42;100966.09;5050904;28;20443;-74
2024/02/20 09:46:54;;;;;;;8.95;4.72;;;;;;;-0.06;43.71;100966.81;5049818;28;20032;-71
2024/02/20 09:49:20;;;;;;;9.52;4.90;;;;;;;-0.16;43.57;100976.63;5049045;28;20029;-73
2024/02/20 09:51:46;;;;;;;14.23;5.60;;;;;;;-0.17;43.25;100965.25;5048288;28;20396;-64
2024/02/20 09:54:16;;;;;;;10.45;5.63;;;;;;;-0.07;42.84;100939.63;5047311;28;20040;-72
2024/02/20 09:56:44;;;;;;;13.77;6.15;;;;;;;-0.11;42.97;100964.28;5049061;28;20101;-73
2024/02/20 09:59:10;;;;;;;10.68;6.10;;;;;;;-0.15;43.45;100973.09;5047940;28;20037;-74
2024/02/20 10:01:37;;;;;;;9.02;5.50;;;;;;;-0.22;43.74;100958.31;5048777;28;20036;-71
2024/02/20 10:04:04;;;;;;;9.27;5.30;;;;;;;-0.08;44.14;100968.59;5048435;28;20453;-71
2024/02/20 10:06:30;;;;;;;11.38;5.00;;;;;;;-0.18;44.12;100946.84;5047327;28;20031;-65
2024/02/20 10:08:57;;;;;;;11.57;6.97;;;;;;;-0.09;44.57;100961.59;5048641;28;20037;-70
2024/02/20 10:11:23;;;;;;;8.50;5.63;;;;;;;-0.10;44.21;100958.13;5048482;28;20033;-69
2024/02/20 10:13:52;;;;;;;11.07;5.35;;;;;;;-0.08;43.84;100953.69;5048609;28;20298;-71
2024/02/20 10:16:18;;;;;;;11.70;5.57;;;;;;;0.15;44.46;100947.13;5047536;28;20086;-72
2024/02/20 10:18:56;;;;;;;10.90;5.18;;;;;;;0.23;44.51;100934.66;5049030;28;20052;-71
2024/02/20 10:21:21;;;;;;;9.05;4.55;;;;;;;0.33;43.72;100950.28;5046975;28;20104;-73
2024/02/20 10:23:47;;;;;;;6.95;4.55;;;;;;;0.20;43.50;100947.00;5029388;28;20112;-74
2024/02/20 10:26:21;;;;;;;9.02;5.07;;;;;;;0.12;43.62;100948.03;5028880;28;20455;-73
2024/02/20 10:28:46;;;;;;;9.40;5.05;;;;;;;0.01;44.27;100950.03;5029503;28;20107;-73
2024/02/20 10:31:12;;;;;;;12.65;4.60;;;;;;;-0.13;44.22;100934.44;5029661;28;20021;-73
2024/02/20 10:33:38;;;;;;;8.88;4.60;;;;;;;-0.07;44.71;100950.16;5048613;28;20040;-70
2024/02/20 10:36:04;;;;;;;9.40;5.70;;;;;;;0.10;43.85;100949.84;5048249;28;20104;-68
2024/02/20 10:38:30;;;;;;;12.15;6.05;;;;;;;0.07;44.40;100956.91;5030679;28;20062;-68
2024/02/20 10:40:57;;;;;;;9.50;5.35;;;;;;;0.08;43.86;100954.25;5028685;28;20065;-68
2024/02/20 10:43:25;;;;;;;9.75;4.60;;;;;;;0.01;44.47;100936.84;5028514;28;20036;-71
2024/02/20 10:45:51;;;;;;;9.82;5.70;;;;;;;-0.07;43.99;100946.63;5036767;28;20039;-75
2024/02/20 10:48:30;;;;;;;10.40;5.10;;;;;;;-0.24;44.58;100937.31;5030853;28;20067;-71
2024/02/20 10:50:58;;;;;;;9.77;4.63;;;;;;;-0.46;44.80;100939.44;5047838;28;20119;-71
2024/02/20 10:53:24;;;;;;;7.40;4.40;;;;;;;-0.99;44.90;100902.56;5046097;28;20121;-70
2024/02/20 10:55:52;;;;;;;6.10;3.75;;;;;;;-0.90;45.71;100942.72;5048644;28;20040;-71
2024/02/20 10:58:19;;;;;;;6.00;3.58;;;;;;;-0.99;46.15;100936.75;5048247;28;20062;-70
2024/02/20 11:00:46;;;;;;;5.75;3.88;;;;;;;-1.12;45.57;100923.78;5046974;28;20402;-68
2024/02/20 11:03:13;;;;;;;8.38;3.80;;;;;;;-1.07;46.93;100927.22;5048781;28;20441;-70
2024/02/20 11:05:39;;;;;;;5.78;3.70;;;;;;;-1.33;46.42;100870.66;5049492;28;20033;-70
2024/02/20 11:08:09;;;;;;;9.85;4.00;;;;;;;-0.83;46.10;100935.63;5037640;28;20036;-69
2024/02/20 11:10:35;;;;;;;7.78;3.97;;;;;;;-0.74;45.58;100927.59;5030116;28;20029;-68
2024/02/20 11:13:27;;;;;;;6.85;3.53;;;;;;;-0.59;46.11;100933.50;5030270;28;20033;-69
2024/02/20 11:15:53;;;;;;;7.78;3.60;;;;;;;-0.69;45.80;100931.94;5030350;28;20041;-68